createdAt,value
2022-11-29T00:00:09.727Z,18.74
2022-11-29T00:01:02.522Z,18.75
2022-11-29T00:01:49.245Z,19.42
2022-11-29T00:02:35.847Z,17.28
2022-11-29T00:03:22.582Z,18.14
2022-11-29T00:04:10.184Z,18.38
2022-11-29T00:04:56.761Z,17.57
2022-11-29T00:05:44.100Z,16.93
2022-11-29T00:06:33.131Z,17.37
2022-11-29T00:07:20.990Z,17.27
2022-11-29T00:08:07.846Z,17.19
2022-11-29T00:08:57.399Z,18.57
2022-11-29T00:09:44.411Z,18.21
2022-11-29T00:10:31.110Z,17.50
2022-11-29T00:11:41.696Z,17.82
2022-11-29T00:12:28.243Z,17.55
2022-11-29T00:13:15.037Z,18.38
2022-11-29T00:14:01.829Z,18.61
2022-11-29T00:14:48.962Z,17.84
2022-11-29T00:15:37.174Z,18.17
2022-11-29T00:16:23.881Z,18.61
2022-11-29T00:17:10.719Z,17.49
2022-11-29T00:17:57.371Z,18.19
2022-11-29T00:18:43.982Z,18.24
2022-11-29T00:19:32.671Z,17.17
2022-11-29T00:20:19.487Z,18.52
2022-11-29T00:21:07.805Z,18.07
2022-11-29T00:21:54.440Z,17.62
2022-11-29T00:22:41.261Z,17.40
2022-11-29T00:23:30.261Z,18.58
2022-11-29T00:24:17.695Z,17.55
2022-11-29T00:25:05.830Z,17.33
2022-11-29T00:25:52.912Z,17.26
2022-11-29T00:26:39.799Z,17.77
2022-11-29T00:27:26.416Z,17.53
2022-11-29T00:28:13.172Z,16.98
2022-11-29T00:28:59.914Z,17.72
2022-11-29T00:29:46.561Z,17.34
2022-11-29T00:30:34.323Z,16.84
2022-11-29T00:31:27.499Z,16.84
2022-11-29T00:32:14.142Z,16.76
2022-11-29T00:33:00.919Z,17.46
2022-11-29T00:33:48.348Z,17.61
2022-11-29T00:34:35.192Z,17.82
2022-11-29T00:35:22.062Z,18.33
2022-11-29T00:36:09.149Z,17.63
2022-11-29T00:36:56.056Z,16.82
2022-11-29T00:37:42.657Z,17.34
2022-11-29T00:38:29.643Z,17.82
2022-11-29T00:39:16.807Z,18.46
2022-11-29T00:40:05.602Z,17.95
2022-11-29T00:40:52.695Z,18.30
2022-11-29T00:41:40.302Z,18.15
2022-11-29T00:42:27.233Z,17.45
2022-11-29T00:43:13.900Z,17.30
2022-11-29T00:44:00.615Z,17.80
2022-11-29T00:44:48.301Z,18.10
2022-11-29T00:45:35.111Z,19.58
2022-11-29T00:46:22.558Z,18.78
2022-11-29T00:47:09.614Z,18.80
2022-11-29T00:47:56.347Z,19.08
2022-11-29T00:48:43.153Z,20.82
2022-11-29T00:49:29.932Z,20.34
2022-11-29T00:50:16.847Z,20.42
2022-11-29T00:51:06.141Z,20.15
2022-11-29T00:51:53.112Z,21.89
2022-11-29T00:52:39.755Z,21.19
2022-11-29T00:53:26.535Z,21.06
2022-11-29T00:54:13.217Z,21.73
2022-11-29T00:55:00.105Z,20.26
2022-11-29T00:55:51.923Z,20.39
2022-11-29T00:56:39.089Z,20.19
2022-11-29T00:57:25.819Z,22.01
2022-11-29T00:58:12.683Z,22.65
2022-11-29T00:58:59.581Z,23.75
2022-11-29T00:59:46.206Z,23.84
2022-11-29T01:00:33.187Z,23.35
2022-11-29T01:01:19.863Z,22.51
2022-11-29T01:02:07.458Z,21.74
2022-11-29T01:02:54.303Z,22.03
2022-11-29T01:03:41.037Z,21.12
2022-11-29T01:04:28.823Z,21.03
2022-11-29T01:05:15.600Z,21.96
2022-11-29T01:06:06.838Z,21.62
2022-11-29T01:06:56.196Z,21.52
2022-11-29T01:07:46.008Z,21.64
2022-11-29T01:08:33.722Z,21.11
2022-11-29T01:09:20.996Z,20.43
2022-11-29T01:10:08.866Z,20.02
2022-11-29T01:11:12.039Z,20.09
2022-11-29T01:12:04.046Z,20.29
2022-11-29T01:12:54.633Z,20.02
2022-11-29T01:13:42.483Z,19.83
2022-11-29T01:14:29.223Z,20.45
2022-11-29T01:15:16.050Z,20.26
2022-11-29T01:16:04.912Z,20.09
2022-11-29T01:16:51.684Z,20.65
2022-11-29T01:17:40.796Z,20.59
2022-11-29T01:18:28.118Z,20.67
2022-11-29T01:19:14.882Z,20.15
2022-11-29T01:20:02.368Z,20.20
2022-11-29T01:21:24.732Z,18.96
2022-11-29T01:22:13.759Z,19.93
2022-11-29T01:23:03.106Z,20.50
2022-11-29T01:23:51.657Z,18.91
2022-11-29T01:24:38.712Z,18.85
2022-11-29T01:25:26.177Z,18.14
2022-11-29T01:26:17.117Z,19.52
2022-11-29T01:27:03.999Z,19.47
2022-11-29T01:27:50.767Z,19.33
2022-11-29T01:28:40.795Z,19.30
2022-11-29T01:29:27.641Z,18.79
2022-11-29T01:30:14.879Z,18.69
2022-11-29T01:31:12.513Z,17.98
2022-11-29T01:32:00.390Z,18.40
2022-11-29T01:32:47.194Z,18.12
2022-11-29T01:33:35.849Z,18.67
2022-11-29T01:34:26.054Z,18.51
2022-11-29T01:35:12.753Z,17.14
2022-11-29T01:35:59.704Z,16.85
2022-11-29T01:36:46.441Z,18.26
2022-11-29T01:37:33.245Z,17.60
2022-11-29T01:38:21.572Z,16.88
2022-11-29T01:39:10.271Z,16.67
2022-11-29T01:40:00.931Z,17.66
2022-11-29T01:41:05.778Z,18.53
2022-11-29T01:41:52.394Z,16.61
2022-11-29T01:42:39.091Z,16.93
2022-11-29T01:43:26.047Z,16.88
2022-11-29T01:44:12.594Z,16.95
2022-11-29T01:45:18.957Z,17.69
2022-11-29T01:46:06.075Z,16.92
2022-11-29T01:46:54.348Z,17.38
2022-11-29T01:47:45.478Z,17.87
2022-11-29T01:48:33.698Z,18.29
2022-11-29T01:49:32.914Z,17.85
2022-11-29T01:50:21.096Z,16.96
2022-11-29T01:51:07.846Z,16.45
2022-11-29T01:52:01.124Z,16.54
2022-11-29T01:52:48.287Z,17.32
2022-11-29T01:53:34.943Z,16.09
2022-11-29T01:54:22.656Z,16.40
2022-11-29T01:55:10.110Z,16.64
2022-11-29T01:56:03.974Z,16.14
2022-11-29T01:56:53.086Z,16.24
2022-11-29T01:57:43.239Z,15.69
2022-11-29T01:58:30.406Z,16.40
2022-11-29T01:59:21.806Z,16.57
2022-11-29T02:00:15.146Z,15.57
2022-11-29T02:01:11.859Z,16.90
2022-11-29T02:02:12.752Z,17.53
2022-11-29T02:03:10.191Z,16.62
2022-11-29T02:03:56.903Z,15.15
2022-11-29T02:04:46.910Z,16.22
2022-11-29T02:05:33.989Z,16.95
2022-11-29T02:06:20.873Z,16.12
2022-11-29T02:07:08.105Z,17.14
2022-11-29T02:07:59.244Z,16.15
2022-11-29T02:08:46.038Z,16.21
2022-11-29T02:09:32.767Z,16.19
2022-11-29T02:10:20.231Z,16.49
2022-11-29T02:11:45.839Z,16.17
2022-11-29T02:12:32.444Z,15.96
2022-11-29T02:13:45.621Z,15.21
2022-11-29T02:14:56.399Z,17.12
2022-11-29T02:15:56.528Z,16.80
2022-11-29T02:17:04.049Z,17.32
2022-11-29T02:18:05.428Z,17.08
2022-11-29T02:19:39.686Z,16.78
2022-11-29T02:20:44.948Z,16.45
2022-11-29T02:21:45.692Z,16.43
2022-11-29T02:22:44.373Z,16.93
2022-11-29T02:23:58.464Z,16.34
2022-11-29T02:25:06.501Z,16.48
2022-11-29T02:26:37.929Z,16.89
2022-11-29T02:28:12.643Z,16.25
2022-11-29T02:29:24.285Z,15.70
2022-11-29T02:30:42.899Z,16.55
2022-11-29T02:31:57.427Z,16.33
2022-11-29T02:33:16.024Z,16.43
2022-11-29T02:34:08.628Z,15.74
2022-11-29T02:35:14.588Z,15.06
2022-11-29T02:36:15.895Z,15.37
2022-11-29T02:37:40.773Z,16.43
2022-11-29T02:38:48.692Z,15.48
2022-11-29T02:40:10.703Z,15.44
2022-11-29T02:41:11.264Z,15.08
2022-11-29T02:42:31.373Z,15.69
2022-11-29T02:43:35.879Z,14.72
2022-11-29T02:44:41.672Z,15.18
2022-11-29T02:45:40.333Z,15.35
2022-11-29T02:46:45.575Z,15.70
2022-11-29T02:47:48.656Z,14.90
2022-11-29T02:48:53.635Z,15.10
2022-11-29T02:50:00.780Z,15.07
2022-11-29T02:50:56.083Z,16.03
2022-11-29T02:52:26.055Z,16.36
2022-11-29T02:53:22.872Z,15.96
2022-11-29T02:54:25.714Z,15.60
2022-11-29T02:55:44.888Z,15.65
2022-11-29T02:56:53.552Z,16.59
2022-11-29T02:58:01.501Z,15.14
2022-11-29T02:59:06.596Z,14.67
2022-11-29T03:00:33.151Z,16.31
2022-11-29T03:01:37.273Z,15.22
2022-11-29T03:02:48.425Z,15.85
2022-11-29T03:04:15.581Z,15.24
2022-11-29T03:05:35.676Z,15.32
2022-11-29T03:06:36.554Z,15.03
2022-11-29T03:07:45.119Z,16.12
2022-11-29T03:08:52.993Z,15.18
2022-11-29T03:09:55.635Z,14.81
2022-11-29T03:10:51.550Z,14.95
2022-11-29T03:11:56.842Z,14.28
2022-11-29T03:12:51.876Z,14.61
2022-11-29T03:14:20.278Z,14.37
2022-11-29T03:15:18.520Z,13.84
2022-11-29T03:16:42.872Z,14.51
2022-11-29T03:17:52.993Z,13.71
2022-11-29T03:19:04.146Z,14.20
2022-11-29T03:20:21.917Z,15.26
2022-11-29T03:21:16.984Z,14.80
2022-11-29T03:22:17.307Z,15.27
2022-11-29T03:23:36.148Z,14.55
2022-11-29T03:24:35.568Z,14.64
2022-11-29T03:25:31.414Z,14.97
2022-11-29T03:26:35.416Z,15.16
2022-11-29T03:27:50.619Z,15.53
2022-11-29T03:28:51.209Z,14.81
2022-11-29T03:29:50.423Z,15.37
2022-11-29T03:30:44.085Z,15.31
2022-11-29T03:31:43.538Z,15.09
2022-11-29T03:32:54.456Z,14.48
2022-11-29T03:34:18.097Z,15.27
2022-11-29T03:35:24.634Z,15.18
2022-11-29T03:36:36.061Z,15.31
2022-11-29T03:37:50.289Z,15.42
2022-11-29T03:38:44.998Z,15.08
2022-11-29T03:39:43.275Z,15.17
2022-11-29T03:40:45.564Z,16.31
2022-11-29T03:41:48.898Z,14.88
2022-11-29T03:42:41.631Z,14.22
2022-11-29T03:43:45.700Z,16.18
2022-11-29T03:44:41.774Z,15.84
2022-11-29T03:45:39.512Z,15.23
2022-11-29T03:46:56.760Z,15.96
2022-11-29T03:47:59.984Z,16.38
2022-11-29T03:48:54.460Z,16.06
2022-11-29T03:49:52.530Z,16.19
2022-11-29T03:50:44.980Z,16.74
2022-11-29T03:51:53.103Z,16.41
2022-11-29T03:52:42.206Z,15.86
2022-11-29T03:53:37.786Z,17.33
2022-11-29T03:54:56.986Z,17.06
2022-11-29T03:56:04.957Z,16.83
2022-11-29T03:56:51.755Z,16.29
2022-11-29T03:58:02.049Z,16.69
2022-11-29T03:59:05.136Z,16.86
2022-11-29T04:00:04.108Z,16.50
2022-11-29T04:01:37.425Z,16.82
2022-11-29T04:02:58.492Z,16.90
2022-11-29T04:04:15.581Z,16.64
2022-11-29T04:05:17.037Z,17.13
2022-11-29T04:06:20.470Z,17.25
2022-11-29T04:07:32.973Z,17.96
2022-11-29T04:08:43.644Z,17.77
2022-11-29T04:09:41.391Z,18.22
2022-11-29T04:10:55.049Z,17.62
2022-11-29T04:12:18.784Z,17.48
2022-11-29T04:13:43.068Z,17.79
2022-11-29T04:14:44.807Z,18.82
2022-11-29T04:15:46.886Z,17.21
2022-11-29T04:16:45.515Z,18.91
2022-11-29T04:17:35.133Z,19.56
2022-11-29T04:18:52.296Z,19.85
2022-11-29T04:19:59.097Z,19.30
2022-11-29T04:20:51.356Z,20.44
2022-11-29T04:21:56.206Z,20.05
2022-11-29T04:22:56.416Z,21.05
2022-11-29T04:24:21.258Z,21.46
2022-11-29T04:25:41.993Z,21.14
2022-11-29T04:27:05.418Z,21.77
2022-11-29T04:27:52.000Z,20.98
2022-11-29T04:29:12.179Z,21.12
2022-11-29T04:30:19.066Z,21.15
2022-11-29T04:31:52.671Z,22.89
2022-11-29T04:32:57.735Z,22.84
2022-11-29T04:34:17.604Z,21.98
2022-11-29T04:35:31.955Z,22.09
2022-11-29T04:36:40.171Z,23.15
2022-11-29T04:37:44.771Z,23.57
2022-11-29T04:39:04.367Z,22.54
2022-11-29T04:40:24.813Z,23.15
2022-11-29T04:41:44.403Z,22.61
2022-11-29T04:42:50.144Z,23.02
2022-11-29T04:44:07.543Z,23.37
2022-11-29T04:45:15.382Z,23.35
2022-11-29T04:46:23.672Z,24.28
2022-11-29T04:47:15.870Z,24.90
2022-11-29T04:48:21.311Z,23.78
2022-11-29T04:49:26.901Z,24.54
2022-11-29T04:50:42.882Z,24.53
2022-11-29T04:51:45.081Z,26.74
2022-11-29T04:52:56.464Z,25.46
2022-11-29T04:54:24.126Z,26.33
2022-11-29T04:55:43.879Z,26.82
2022-11-29T04:56:44.219Z,27.25
2022-11-29T04:57:40.124Z,27.62
2022-11-29T04:58:55.234Z,29.35
2022-11-29T05:00:02.675Z,29.33
2022-11-29T05:01:04.281Z,28.86
2022-11-29T05:02:50.804Z,29.26
2022-11-29T05:03:57.250Z,33.15
2022-11-29T05:05:02.047Z,34.80
2022-11-29T05:06:09.584Z,34.39
2022-11-29T05:07:12.430Z,35.14
2022-11-29T05:08:31.353Z,36.35
2022-11-29T05:09:46.587Z,35.55
2022-11-29T05:10:51.418Z,33.58
2022-11-29T05:12:01.999Z,34.37
2022-11-29T05:13:05.225Z,32.56
2022-11-29T05:14:06.004Z,31.53
2022-11-29T05:15:40.992Z,32.81
2022-11-29T05:16:53.490Z,31.10
2022-11-29T05:18:35.780Z,30.65
2022-11-29T05:19:50.436Z,33.97
2022-11-29T05:21:08.826Z,32.51
2022-11-29T05:22:01.022Z,33.06
2022-11-29T05:23:22.420Z,32.31
2022-11-29T05:24:47.549Z,33.82
2022-11-29T05:25:37.663Z,33.13
2022-11-29T05:26:45.891Z,33.07
2022-11-29T05:27:47.158Z,30.44
2022-11-29T05:28:40.283Z,31.57
2022-11-29T05:29:57.445Z,32.51
2022-11-29T05:31:12.412Z,33.09
2022-11-29T05:32:34.735Z,33.35
2022-11-29T05:33:52.605Z,33.23
2022-11-29T05:35:16.333Z,31.77
2022-11-29T05:36:18.907Z,34.15
2022-11-29T05:37:05.358Z,33.63
2022-11-29T05:38:02.192Z,31.20
2022-11-29T05:39:08.741Z,31.49
2022-11-29T05:39:55.460Z,32.21
2022-11-29T05:41:05.631Z,31.64
2022-11-29T05:42:28.948Z,29.29
2022-11-29T05:43:36.737Z,31.31
2022-11-29T05:44:42.027Z,33.34
2022-11-29T05:45:46.615Z,29.64
2022-11-29T05:46:54.199Z,34.80
2022-11-29T05:48:21.896Z,33.87
2022-11-29T05:49:25.209Z,32.03
2022-11-29T05:50:32.483Z,33.63
2022-11-29T05:51:29.174Z,34.22
2022-11-29T05:52:33.301Z,33.62
2022-11-29T05:53:55.167Z,34.56
2022-11-29T05:55:06.067Z,34.25
2022-11-29T05:56:02.509Z,35.17
2022-11-29T05:57:06.440Z,34.88
2022-11-29T05:58:31.507Z,33.77
2022-11-29T05:59:28.517Z,35.10
2022-11-29T06:00:19.008Z,36.13
2022-11-29T06:01:33.862Z,35.32
2022-11-29T06:02:31.651Z,36.13
2022-11-29T06:03:56.607Z,36.01
2022-11-29T06:05:04.702Z,36.28
2022-11-29T06:06:01.252Z,36.15
2022-11-29T06:07:15.011Z,36.58
2022-11-29T06:08:13.416Z,37.78
2022-11-29T06:09:13.962Z,37.99
2022-11-29T06:10:11.552Z,35.97
2022-11-29T06:11:12.046Z,36.27
2022-11-29T06:12:23.046Z,37.22
2022-11-29T06:13:38.347Z,35.04
2022-11-29T06:14:49.303Z,37.09
2022-11-29T06:16:06.271Z,35.25
2022-11-29T06:17:18.825Z,34.56
2022-11-29T06:18:34.319Z,37.68
2022-11-29T06:19:42.485Z,36.15
2022-11-29T06:20:48.426Z,36.52
2022-11-29T06:21:52.503Z,36.85
2022-11-29T06:23:25.464Z,36.83
2022-11-29T06:24:30.015Z,38.31
2022-11-29T06:25:26.704Z,39.62
2022-11-29T06:26:58.224Z,38.04
2022-11-29T06:28:10.463Z,38.48
2022-11-29T06:29:15.319Z,40.23
2022-11-29T06:30:09.140Z,43.20
2022-11-29T06:31:48.230Z,45.32
2022-11-29T06:32:56.301Z,42.94
2022-11-29T06:33:59.100Z,41.71
2022-11-29T06:35:05.117Z,45.10
2022-11-29T06:36:15.883Z,45.65
2022-11-29T06:37:16.890Z,45.24
2022-11-29T06:38:23.243Z,47.03
2022-11-29T06:39:12.300Z,44.56
2022-11-29T06:40:00.184Z,46.90
2022-11-29T06:40:48.692Z,47.85
2022-11-29T06:41:35.684Z,48.10
2022-11-29T06:42:22.454Z,49.55
2022-11-29T06:43:09.732Z,49.66
2022-11-29T06:43:57.123Z,47.75
2022-11-29T06:44:44.353Z,52.40
2022-11-29T06:45:31.631Z,50.00
2022-11-29T06:46:45.549Z,52.00
2022-11-29T06:48:01.776Z,54.79
2022-11-29T06:49:03.917Z,54.90
2022-11-29T06:50:10.506Z,50.55
2022-11-29T06:51:21.983Z,51.00
2022-11-29T06:52:22.754Z,54.20
2022-11-29T06:53:19.765Z,56.40
2022-11-29T06:54:14.637Z,56.38
2022-11-29T06:55:36.518Z,53.65
2022-11-29T06:56:29.231Z,54.95
2022-11-29T06:57:37.248Z,54.05
2022-11-29T06:58:42.135Z,56.27
2022-11-29T07:00:08.851Z,57.55
2022-11-29T07:01:41.758Z,56.52
2022-11-29T07:02:45.140Z,55.48
2022-11-29T07:03:51.982Z,54.74
2022-11-29T07:05:29.256Z,56.08
2022-11-29T07:06:23.733Z,55.47
2022-11-29T07:07:20.845Z,55.65
2022-11-29T07:08:26.238Z,58.21
2022-11-29T07:09:17.001Z,54.67
2022-11-29T07:10:08.300Z,56.43
2022-11-29T07:10:59.823Z,55.47
2022-11-29T07:11:47.751Z,56.60
2022-11-29T07:12:34.782Z,58.35
2022-11-29T07:13:22.417Z,59.54
2022-11-29T07:14:10.158Z,55.42
2022-11-29T07:14:58.044Z,55.99
2022-11-29T07:16:00.016Z,56.10
2022-11-29T07:17:02.233Z,56.89
2022-11-29T07:18:15.065Z,54.26
2022-11-29T07:19:07.743Z,57.02
2022-11-29T07:20:26.187Z,56.53
2022-11-29T07:21:39.492Z,54.78
2022-11-29T07:22:59.603Z,55.51
2022-11-29T07:24:04.622Z,56.17
2022-11-29T07:25:01.882Z,53.74
2022-11-29T07:26:10.261Z,53.46
2022-11-29T07:27:11.448Z,51.34
2022-11-29T07:28:29.006Z,55.94
2022-11-29T07:29:45.654Z,55.61
2022-11-29T07:30:50.978Z,51.28
2022-11-29T07:32:06.060Z,50.07
2022-11-29T07:33:05.821Z,55.98
2022-11-29T07:34:29.206Z,55.03
2022-11-29T07:35:29.295Z,52.37
2022-11-29T07:36:35.849Z,54.35
2022-11-29T07:37:40.921Z,53.83
2022-11-29T07:39:04.735Z,52.13
2022-11-29T07:40:14.199Z,50.94
2022-11-29T07:41:15.518Z,53.16
2022-11-29T07:42:44.879Z,49.83
2022-11-29T07:43:49.991Z,49.90
2022-11-29T07:44:47.489Z,48.50
2022-11-29T07:45:38.369Z,49.07
2022-11-29T07:46:25.753Z,48.24
2022-11-29T07:47:15.660Z,49.00
2022-11-29T07:48:04.063Z,48.29
2022-11-29T07:48:51.414Z,48.57
2022-11-29T07:49:39.218Z,53.09
2022-11-29T07:50:28.685Z,51.81
2022-11-29T07:51:15.572Z,49.73
2022-11-29T07:52:02.435Z,46.19
2022-11-29T07:52:50.008Z,47.85
2022-11-29T07:53:42.964Z,48.95
2022-11-29T07:54:30.349Z,48.37
2022-11-29T07:55:20.488Z,47.89
2022-11-29T07:56:07.301Z,47.14
2022-11-29T07:56:54.076Z,47.23
2022-11-29T07:57:40.595Z,46.45
2022-11-29T07:58:27.207Z,44.52
2022-11-29T07:59:16.741Z,46.07
2022-11-29T08:00:05.004Z,46.83
2022-11-29T08:00:58.215Z,46.94
2022-11-29T08:01:48.038Z,47.91
2022-11-29T08:02:34.944Z,47.62
2022-11-29T08:03:21.683Z,46.84
2022-11-29T08:04:09.738Z,45.68
2022-11-29T08:04:56.631Z,45.13
2022-11-29T08:05:47.195Z,44.80
2022-11-29T08:06:34.247Z,46.97
2022-11-29T08:07:21.187Z,46.85
2022-11-29T08:08:08.468Z,47.08
2022-11-29T08:08:58.364Z,45.53
2022-11-29T08:09:55.808Z,46.39
2022-11-29T08:10:47.973Z,46.56
2022-11-29T08:11:43.246Z,46.03
2022-11-29T08:12:38.210Z,50.00
2022-11-29T08:13:30.594Z,50.52
2022-11-29T08:14:21.784Z,47.58
2022-11-29T08:15:15.533Z,46.95
2022-11-29T08:16:16.685Z,48.10
2022-11-29T08:17:06.460Z,52.22
2022-11-29T08:17:56.487Z,46.99
2022-11-29T08:18:43.697Z,43.19
2022-11-29T08:19:30.718Z,46.31
2022-11-29T08:20:17.590Z,48.96
2022-11-29T08:21:07.862Z,45.87
2022-11-29T08:21:57.795Z,45.18
2022-11-29T08:22:44.854Z,49.51
2022-11-29T08:23:31.852Z,48.82
2022-11-29T08:24:19.070Z,47.17
2022-11-29T08:25:08.005Z,44.96
2022-11-29T08:26:00.008Z,44.08
2022-11-29T08:26:47.138Z,44.18
2022-11-29T08:27:37.747Z,42.31
2022-11-29T08:28:24.421Z,43.88
2022-11-29T08:29:11.266Z,42.28
2022-11-29T08:29:57.876Z,42.41
2022-11-29T08:30:47.232Z,45.18
2022-11-29T08:31:34.174Z,48.56
2022-11-29T08:32:20.948Z,46.21
2022-11-29T08:33:08.262Z,43.33
2022-11-29T08:33:54.804Z,44.38
2022-11-29T08:34:41.351Z,49.06
2022-11-29T08:35:28.259Z,51.17
2022-11-29T08:36:19.237Z,44.75
2022-11-29T08:37:05.992Z,40.59
2022-11-29T08:37:54.668Z,41.97
2022-11-29T08:38:41.253Z,46.55
2022-11-29T08:39:29.055Z,48.00
2022-11-29T08:40:17.366Z,47.26
2022-11-29T08:41:10.762Z,46.32
2022-11-29T08:41:57.362Z,45.08
2022-11-29T08:42:44.147Z,44.46
2022-11-29T08:43:31.145Z,43.85
2022-11-29T08:44:18.164Z,43.49
2022-11-29T08:45:06.245Z,42.06
2022-11-29T08:45:52.831Z,41.87
2022-11-29T08:46:58.060Z,41.10
2022-11-29T08:47:44.758Z,44.29
2022-11-29T08:48:33.069Z,41.72
2022-11-29T08:49:19.731Z,39.85
2022-11-29T08:50:24.576Z,42.39
2022-11-29T08:51:11.241Z,44.22
2022-11-29T08:52:17.403Z,41.96
2022-11-29T08:53:22.413Z,39.99
2022-11-29T08:54:09.105Z,41.44
2022-11-29T08:54:58.929Z,40.91
2022-11-29T08:55:50.441Z,37.97
2022-11-29T08:57:46.941Z,38.47
2022-11-29T08:58:33.776Z,39.58
2022-11-29T08:59:20.298Z,38.60
2022-11-29T09:00:07.859Z,39.03
2022-11-29T09:01:12.983Z,37.54
2022-11-29T09:01:59.526Z,38.38
2022-11-29T09:02:46.346Z,40.18
2022-11-29T09:03:52.381Z,39.58
2022-11-29T09:04:38.908Z,40.53
2022-11-29T09:05:26.802Z,37.57
2022-11-29T09:06:15.908Z,39.45
2022-11-29T09:07:02.617Z,38.44
2022-11-29T09:07:50.505Z,37.88
2022-11-29T09:08:37.376Z,38.18
2022-11-29T09:09:24.082Z,39.18
2022-11-29T09:10:12.081Z,39.37
2022-11-29T09:10:58.786Z,37.91
2022-11-29T09:11:49.233Z,37.55
2022-11-29T09:12:37.208Z,38.36
2022-11-29T09:13:24.258Z,38.36
2022-11-29T09:14:15.794Z,38.19
2022-11-29T09:15:05.676Z,37.64
2022-11-29T09:15:53.701Z,38.34
2022-11-29T09:16:40.968Z,36.76
2022-11-29T09:17:30.675Z,39.80
2022-11-29T09:18:17.516Z,38.58
2022-11-29T09:19:07.462Z,39.15
2022-11-29T09:19:56.506Z,38.65
2022-11-29T09:20:44.638Z,36.39
2022-11-29T09:21:34.041Z,38.43
2022-11-29T09:22:21.675Z,39.70
2022-11-29T09:23:08.249Z,37.66
2022-11-29T09:23:59.052Z,37.21
2022-11-29T09:24:48.291Z,35.39
2022-11-29T09:25:35.187Z,33.94
2022-11-29T09:26:24.065Z,33.42
2022-11-29T09:27:11.068Z,34.34
2022-11-29T09:28:01.993Z,34.42
2022-11-29T09:28:49.455Z,34.72
2022-11-29T09:29:36.347Z,37.71
2022-11-29T09:30:23.948Z,36.04
2022-11-29T09:31:18.105Z,34.67
2022-11-29T09:32:05.100Z,35.23
2022-11-29T09:32:51.709Z,35.96
2022-11-29T09:33:42.550Z,33.47
2022-11-29T09:34:29.129Z,33.50
2022-11-29T09:35:15.855Z,35.14
2022-11-29T09:36:03.832Z,35.47
2022-11-29T09:36:51.141Z,35.09
2022-11-29T09:37:38.009Z,33.12
2022-11-29T09:38:26.746Z,34.41
2022-11-29T09:39:17.698Z,34.10
2022-11-29T09:40:05.581Z,32.77
2022-11-29T09:41:01.158Z,34.50
2022-11-29T09:42:44.609Z,32.26
2022-11-29T09:44:01.842Z,36.11
2022-11-29T09:44:55.524Z,39.67
2022-11-29T09:45:49.383Z,33.07
2022-11-29T09:46:44.369Z,34.34
2022-11-29T09:47:45.974Z,33.85
2022-11-29T09:48:32.372Z,32.51
2022-11-29T09:49:37.550Z,34.22
2022-11-29T09:50:34.661Z,33.18
2022-11-29T09:51:56.863Z,33.33
2022-11-29T09:53:10.549Z,31.83
2022-11-29T09:53:57.099Z,32.92
2022-11-29T09:54:55.659Z,34.05
2022-11-29T09:56:07.061Z,32.40
2022-11-29T09:56:57.214Z,32.92
2022-11-29T09:57:46.724Z,32.97
2022-11-29T09:58:43.633Z,31.53
2022-11-29T09:59:43.454Z,31.73
2022-11-29T10:00:35.536Z,33.37
2022-11-29T10:01:31.323Z,30.87
2022-11-29T10:02:36.248Z,29.67
2022-11-29T10:03:31.905Z,31.59
2022-11-29T10:04:25.463Z,30.95
2022-11-29T10:05:22.080Z,32.52
2022-11-29T10:06:23.207Z,31.95
2022-11-29T10:07:26.426Z,31.29
2022-11-29T10:08:19.855Z,31.22
2022-11-29T10:09:33.563Z,32.57
2022-11-29T10:10:26.573Z,31.25
2022-11-29T10:11:20.218Z,29.63
2022-11-29T10:12:22.085Z,30.41
2022-11-29T10:13:31.485Z,31.92
2022-11-29T10:14:34.299Z,31.38
2022-11-29T10:15:29.378Z,33.28
2022-11-29T10:16:37.198Z,32.25
2022-11-29T10:17:54.003Z,30.22
2022-11-29T10:18:49.699Z,30.83
2022-11-29T10:19:43.045Z,29.69
2022-11-29T10:20:39.713Z,30.08
2022-11-29T10:21:36.521Z,31.55
2022-11-29T10:22:30.499Z,32.02
2022-11-29T10:23:25.530Z,31.01
2022-11-29T10:24:18.315Z,30.85
2022-11-29T10:25:10.452Z,29.82
2022-11-29T10:25:58.572Z,31.11
2022-11-29T10:26:45.792Z,32.90
2022-11-29T10:27:32.450Z,34.09
2022-11-29T10:28:22.388Z,33.97
2022-11-29T10:29:15.408Z,33.41
2022-11-29T10:30:02.659Z,34.97
2022-11-29T10:30:55.508Z,36.25
2022-11-29T10:31:49.560Z,37.31
2022-11-29T10:32:36.139Z,40.12
2022-11-29T10:33:30.121Z,38.17
2022-11-29T10:34:21.575Z,37.85
2022-11-29T10:35:17.894Z,39.26
2022-11-29T10:36:24.884Z,40.27
2022-11-29T10:37:17.674Z,38.94
2022-11-29T10:38:29.874Z,36.03
2022-11-29T10:39:42.301Z,39.63
2022-11-29T10:40:38.077Z,41.03
2022-11-29T10:41:25.835Z,37.48
2022-11-29T10:42:38.118Z,39.19
2022-11-29T10:43:26.330Z,40.83
2022-11-29T10:44:15.377Z,39.80
2022-11-29T10:45:04.386Z,41.84
2022-11-29T10:45:56.168Z,39.54
2022-11-29T10:46:43.314Z,40.74
2022-11-29T10:47:30.784Z,40.29
2022-11-29T10:48:21.168Z,40.19
2022-11-29T10:49:18.713Z,41.08
2022-11-29T10:50:05.923Z,39.47
2022-11-29T10:50:53.636Z,39.60
2022-11-29T10:51:40.409Z,38.90
2022-11-29T10:52:27.016Z,41.20
2022-11-29T10:53:17.310Z,38.21
2022-11-29T10:54:18.251Z,39.82
2022-11-29T10:55:05.551Z,40.70
2022-11-29T10:56:01.246Z,36.94
2022-11-29T10:56:48.540Z,38.89
2022-11-29T10:57:36.489Z,36.42
2022-11-29T10:58:28.477Z,34.73
2022-11-29T10:59:33.109Z,34.94
2022-11-29T11:00:20.119Z,35.47
2022-11-29T11:01:08.804Z,34.13
2022-11-29T11:01:56.475Z,36.53
2022-11-29T11:02:43.002Z,35.53
2022-11-29T11:03:38.302Z,35.05
2022-11-29T11:04:35.579Z,35.53
2022-11-29T11:05:26.733Z,37.59
2022-11-29T11:06:27.190Z,38.13
2022-11-29T11:07:29.326Z,36.24
2022-11-29T11:08:18.425Z,38.20
2022-11-29T11:09:34.155Z,35.32
2022-11-29T11:10:28.778Z,34.96
2022-11-29T11:11:26.957Z,35.63
2022-11-29T11:12:16.110Z,33.49
2022-11-29T11:13:11.804Z,35.01
2022-11-29T11:14:06.063Z,31.69
2022-11-29T11:15:16.812Z,30.37
2022-11-29T11:16:20.328Z,31.86
2022-11-29T11:17:32.487Z,33.62
2022-11-29T11:18:22.850Z,29.66
2022-11-29T11:19:28.576Z,31.32
2022-11-29T11:20:24.442Z,32.54
2022-11-29T11:21:14.187Z,32.07
2022-11-29T11:22:04.292Z,30.95
2022-11-29T11:23:00.795Z,32.08
2022-11-29T11:24:02.869Z,30.36
2022-11-29T11:25:05.596Z,30.72
2022-11-29T11:26:02.069Z,33.44
2022-11-29T11:26:48.716Z,33.98
2022-11-29T11:27:41.103Z,32.51
2022-11-29T11:28:34.506Z,32.77
2022-11-29T11:29:29.523Z,32.21
2022-11-29T11:30:28.824Z,31.17
2022-11-29T11:31:25.665Z,30.60
2022-11-29T11:32:19.326Z,29.66
2022-11-29T11:33:25.021Z,28.92
2022-11-29T11:34:34.315Z,28.88
2022-11-29T11:35:24.006Z,27.24
2022-11-29T11:36:19.815Z,27.13
2022-11-29T11:37:23.423Z,28.50
2022-11-29T11:38:17.499Z,28.68
2022-11-29T11:39:20.380Z,29.99
2022-11-29T11:40:28.798Z,28.15
2022-11-29T11:41:23.551Z,28.53
2022-11-29T11:42:34.004Z,30.03
2022-11-29T11:43:21.838Z,27.69
2022-11-29T11:44:53.618Z,27.29
2022-11-29T11:45:41.399Z,29.94
2022-11-29T11:46:53.492Z,31.09
2022-11-29T11:47:55.252Z,30.31
2022-11-29T11:48:42.470Z,29.73
2022-11-29T11:49:48.112Z,29.65
2022-11-29T11:50:57.654Z,29.82
2022-11-29T11:51:44.937Z,29.36
2022-11-29T11:52:50.680Z,29.06
2022-11-29T11:53:38.570Z,30.31
2022-11-29T11:54:27.949Z,30.79
2022-11-29T11:55:55.663Z,30.57
2022-11-29T11:56:45.582Z,30.64
2022-11-29T11:57:32.461Z,30.62
2022-11-29T11:58:23.762Z,30.77
2022-11-29T11:59:21.230Z,32.63
2022-11-29T12:01:02.981Z,28.51
2022-11-29T12:01:48.254Z,29.33
2022-11-29T12:02:40.574Z,26.94
2022-11-29T12:03:49.726Z,27.12
2022-11-29T12:04:38.232Z,27.72
2022-11-29T12:05:25.275Z,27.62
2022-11-29T12:06:28.847Z,27.82
2022-11-29T12:07:59.287Z,27.43
2022-11-29T12:08:36.721Z,26.17
2022-11-29T12:09:37.527Z,26.29
2022-11-29T12:10:28.876Z,28.10
2022-11-29T12:11:18.768Z,29.43
2022-11-29T12:12:11.470Z,27.73
2022-11-29T12:13:00.881Z,27.14
2022-11-29T12:14:00.019Z,27.28
2022-11-29T12:15:01.031Z,26.97
2022-11-29T12:15:51.622Z,27.92
2022-11-29T12:16:40.521Z,25.19
2022-11-29T12:17:49.132Z,26.51
2022-11-29T12:18:46.420Z,27.76
2022-11-29T12:19:44.087Z,27.83
2022-11-29T12:20:42.540Z,27.30
2022-11-29T12:21:37.747Z,26.49
2022-11-29T12:22:31.263Z,26.90
2022-11-29T12:23:31.313Z,28.03
2022-11-29T12:24:29.161Z,26.19
2022-11-29T12:25:26.081Z,26.94
2022-11-29T12:26:48.964Z,27.32
2022-11-29T12:27:26.147Z,27.49
2022-11-29T12:28:20.687Z,28.02